| time (UTC) | temp F | wind direction | speed MPH | gust MPH | rain 1hr in | rain 24hr in | rain mn in | humidity % | barometer mb |
| 20260510130418 | 58 | 264 | 4.0 | 4.0 | 0.00 | 0.00 | 0.00 | 82 | 1043.8 |
| 20260510125914 | 57 | 244 | 6.0 | 9.0 | 0.00 | 0.00 | 0.00 | 83 | 1043.4 |
| 20260510125405 | 57 | 261 | 1.0 | 3.0 | 0.00 | 0.00 | 0.00 | 84 | 1043.3 |
| 20260510124902 | 57 | 249 | 3.0 | 6.0 | 0.00 | 0.00 | 0.00 | 85 | 1043.4 |
| 20260510124358 | 57 | 237 | 3.0 | 4.0 | 0.00 | 0.00 | 0.00 | 83 | 1043.5 |
| 20260510123854 | 57 | 249 | 1.0 | 3.0 | 0.00 | 0.00 | 0.00 | 84 | 1043.5 |
| 20260510123350 | 57 | 243 | 0.0 | 3.0 | 0.00 | 0.00 | 0.00 | 83 | 1043.3 |
| 20260510122846 | 57 | 196 | 4.0 | 4.0 | 0.00 | 0.00 | 0.00 | 82 | 1043.5 |
| 20260510122342 | 56 | 256 | 1.0 | 2.0 | 0.00 | 0.00 | 0.00 | 85 | 1043.4 |
| 20260510121839 | 55 | 290 | 0.0 | 2.0 | 0.00 | 0.00 | 0.00 | 87 | 1043.4 |
| 20260510121337 | 55 | 143 | 3.0 | 3.0 | 0.00 | 0.00 | 0.00 | 87 | 1043.4 |
| 20260510120833 | 55 | 353 | 1.0 | 3.0 | 0.00 | 0.00 | 0.00 | 87 | 1043.3 |
| 20260510120331 | 54 | 262 | 0.0 | 1.0 | 0.00 | 0.00 | 0.00 | 90 | 1043.4 |
| 20260510115826 | 53 | 284 | 0.0 | 1.0 | 0.00 | 0.00 | 0.00 | 91 | 1043.4 |
| 20260510115324 | 54 | 101 | 2.0 | 3.0 | 0.00 | 0.00 | 0.00 | 90 | 1043.2 |
| 20260510114819 | 54 | 172 | 0.0 | 0.0 | 0.00 | 0.00 | 0.00 | 88 | 1043.3 |
| 20260510114317 | 53 | 271 | 0.0 | 0.0 | 0.00 | 0.00 | 0.00 | 91 | 1043.0 |
| 20260510113811 | 52 | 306 | 0.0 | 0.0 | 0.00 | 0.00 | 0.00 | 94 | 1043.1 |
| 20260510113309 | 51 | 307 | 0.0 | 0.0 | 0.00 | 0.00 | 0.00 | 95 | 1042.8 |
| 20260510112805 | 51 | 307 | 0.0 | 0.0 | 0.00 | 0.00 | 0.00 | 95 | 1042.6 |
| 20260510112305 | 50 | 307 | 0.0 | 1.0 | 0.00 | 0.00 | 0.00 | 95 | 1042.6 |
| 20260510111758 | 50 | 307 | 1.0 | 3.0 | 0.00 | 0.00 | 0.00 | 95 | 1042.3 |
| 20260510111255 | 50 | 281 | 0.0 | 0.0 | 0.00 | 0.00 | 0.00 | 95 | 1042.4 |
| 20260510110754 | 49 | 281 | 0.0 | 0.0 | 0.00 | 0.00 | 0.00 | 95 | 1042.3 |
| 20260510110253 | 49 | 276 | 0.0 | 0.0 | 0.00 | 0.00 | 0.00 | 95 | 1042.1 |
| 20260510105753 | 49 | 276 | 0.0 | 0.0 | 0.00 | 0.00 | 0.00 | 95 | 1042.2 |
| 20260510105247 | 48 | 272 | 1.0 | 1.0 | 0.00 | 0.00 | 0.00 | 95 | 1042.1 |
| 20260510104744 | 49 | 291 | 1.0 | 1.0 | 0.00 | 0.00 | 0.00 | 95 | 1042.4 |
| 20260510104242 | 49 | 293 | 0.0 | 1.0 | 0.00 | 0.00 | 0.00 | 95 | 1042.1 |
| 20260510103737 | 48 | 297 | 1.0 | 2.0 | 0.00 | 0.00 | 0.00 | 95 | 1042.1 |
| 20260510103235 | 48 | 305 | 0.0 | 2.0 | 0.00 | 0.00 | 0.00 | 95 | 1042.3 |
| 20260510102735 | 48 | 305 | 2.0 | 3.0 | 0.00 | 0.00 | 0.00 | 95 | 1041.9 |
| 20260510102230 | 48 | 312 | 2.0 | 3.0 | 0.00 | 0.00 | 0.00 | 95 | 1042.0 |
| 20260510101728 | 48 | 291 | 2.0 | 3.0 | 0.00 | 0.00 | 0.00 | 95 | 1041.8 |
| 20260510101227 | 48 | 270 | 0.0 | 0.0 | 0.00 | 0.00 | 0.00 | 95 | 1041.8 |
| 20260510100722 | 48 | 267 | 0.0 | 0.0 | 0.00 | 0.00 | 0.00 | 95 | 1041.5 |
| 20260510100221 | 48 | 258 | 0.0 | 0.0 | 0.00 | 0.00 | 0.00 | 95 | 1041.7 |
| 20260510095715 | 48 | 295 | 0.0 | 0.0 | 0.00 | 0.00 | 0.00 | 95 | 1041.8 |
| 20260510095211 | 48 | 297 | 1.0 | 1.0 | 0.00 | 0.00 | 0.00 | 95 | 1041.7 |
| 20260510094710 | 48 | 297 | 0.0 | 1.0 | 0.00 | 0.00 | 0.00 | 95 | 1041.9 |
| 20260510094206 | 47 | 297 | 0.0 | 1.0 | 0.00 | 0.00 | 0.00 | 95 | 1041.8 |
| 20260510093701 | 47 | 300 | 1.0 | 2.0 | 0.00 | 0.00 | 0.00 | 95 | 1041.9 |
| 20260510093159 | 47 | 297 | 0.0 | 0.0 | 0.00 | 0.00 | 0.00 | 95 | 1041.5 |
| 20260510092655 | 47 | 298 | 2.0 | 2.0 | 0.00 | 0.00 | 0.00 | 95 | 1041.4 |
| 20260510092151 | 47 | 294 | 0.0 | 2.0 | 0.00 | 0.00 | 0.00 | 95 | 1041.7 |
| 20260510091647 | 47 | 298 | 1.0 | 2.0 | 0.00 | 0.00 | 0.00 | 95 | 1041.5 |
| 20260510091143 | 47 | 292 | 2.0 | 2.0 | 0.00 | 0.00 | 0.00 | 95 | 1041.4 |
| 20260510090640 | 48 | 279 | 0.0 | 0.0 | 0.00 | 0.00 | 0.00 | 95 | 1041.5 |
| 20260510090137 | 47 | 279 | 0.0 | 0.0 | 0.00 | 0.00 | 0.00 | 95 | 1041.2 |
| 20260510085632 | 47 | 279 | 0.0 | 0.0 | 0.00 | 0.00 | 0.00 | 95 | 1041.3 |
| 20260510085127 | 47 | 279 | 0.0 | 0.0 | 0.00 | 0.00 | 0.00 | 95 | 1040.9 |
| 20260510084624 | 47 | 278 | 0.0 | 0.0 | 0.00 | 0.00 | 0.00 | 95 | 1041.2 |
| 20260510084121 | 47 | 260 | 0.0 | 0.0 | 0.00 | 0.00 | 0.00 | 95 | 1041.2 |
| 20260510083617 | 48 | 252 | 0.0 | 0.0 | 0.00 | 0.00 | 0.00 | 95 | 1041.1 |
| 20260510083113 | 48 | 284 | 0.0 | 3.0 | 0.00 | 0.00 | 0.00 | 95 | 1040.8 |
| 20260510082610 | 48 | 314 | 2.0 | 3.0 | 0.00 | 0.00 | 0.00 | 95 | 1040.8 |
| 20260510082106 | 48 | 299 | 2.0 | 2.0 | 0.00 | 0.00 | 0.00 | 95 | 1040.9 |
| 20260510081601 | 48 | 306 | 2.0 | 2.0 | 0.00 | 0.00 | 0.00 | 95 | 1040.7 |
| 20260510081057 | 48 | 312 | 2.0 | 3.0 | 0.00 | 0.00 | 0.00 | 95 | 1040.8 |
| 20260510080556 | 48 | 278 | 0.0 | 0.0 | 0.00 | 0.00 | 0.00 | 95 | 1040.9 |
| 20260510080053 | 48 | 279 | 0.0 | 0.0 | 0.00 | 0.00 | 0.00 | 95 | 1040.9 |
| 20260510075550 | 48 | 306 | 2.0 | 2.0 | 0.00 | 0.00 | 0.00 | 95 | 1040.4 |
| 20260510075047 | 48 | 271 | 0.0 | 0.0 | 0.00 | 0.00 | 0.00 | 95 | 1040.8 |
| 20260510074545 | 48 | 271 | 0.0 | 0.0 | 0.00 | 0.00 | 0.00 | 95 | 1040.6 |
| 20260510074039 | 48 | 268 | 0.0 | 0.0 | 0.00 | 0.00 | 0.00 | 95 | 1040.6 |
| 20260510073536 | 49 | 254 | 0.0 | 0.0 | 0.00 | 0.00 | 0.00 | 95 | 1040.7 |
| 20260510073033 | 49 | 249 | 0.0 | 0.0 | 0.00 | 0.00 | 0.00 | 95 | 1040.6 |
| 20260510072530 | 49 | 257 | 1.0 | 1.0 | 0.00 | 0.00 | 0.00 | 95 | 1041.0 |
| 20260510072025 | 49 | 284 | 1.0 | 3.0 | 0.00 | 0.00 | 0.00 | 95 | 1041.1 |
| 20260510071522 | 49 | 300 | 1.0 | 2.0 | 0.00 | 0.00 | 0.00 | 95 | 1041.0 |
| 20260510071020 | 49 | 283 | 0.0 | 3.0 | 0.00 | 0.00 | 0.00 | 95 | 1041.0 |
| 20260510070517 | 49 | 300 | 1.0 | 2.0 | 0.00 | 0.00 | 0.00 | 95 | 1041.0 |
| 20260510070013 | 48 | 314 | 2.0 | 3.0 | 0.00 | 0.00 | 0.00 | 95 | 1041.1 |
| 20260510065510 | 48 | 287 | 2.0 | 2.0 | 0.00 | 0.00 | 0.00 | 95 | 1041.3 |
| 20260510065006 | 48 | 295 | 1.0 | 2.0 | 0.00 | 0.00 | 0.00 | 95 | 1041.2 |
| 20260510064503 | 48 | 252 | 0.0 | 1.0 | 0.00 | 0.00 | 0.00 | 95 | 1041.3 |
| 20260510063959 | 48 | 245 | 1.0 | 1.0 | 0.00 | 0.00 | 0.00 | 95 | 1041.5 |
| 20260510063455 | 48 | 266 | 0.0 | 0.0 | 0.00 | 0.00 | 0.00 | 95 | 1041.8 |
| 20260510062953 | 48 | 245 | 1.0 | 1.0 | 0.00 | 0.00 | 0.00 | 95 | 1042.1 |
| 20260510062448 | 48 | 271 | 0.0 | 0.0 | 0.00 | 0.00 | 0.00 | 95 | 1042.2 |
| 20260510061943 | 48 | 276 | 0.0 | 1.0 | 0.00 | 0.00 | 0.00 | 95 | 1042.1 |
| 20260510061441 | 48 | 276 | 0.0 | 0.0 | 0.00 | 0.00 | 0.00 | 95 | 1041.8 |
| 20260510060937 | 48 | 283 | 0.0 | 2.0 | 0.00 | 0.00 | 0.00 | 95 | 1041.8 |
| 20260510060434 | 48 | 298 | 1.0 | 2.0 | 0.00 | 0.00 | 0.00 | 95 | 1041.8 |
| 20260510055930 | 47 | 271 | 0.0 | 0.0 | 0.00 | 0.00 | 0.00 | 95 | 1042.4 |
| 20260510055426 | 46 | 313 | 1.0 | 2.0 | 0.00 | 0.00 | 0.00 | 95 | 1042.1 |
| 20260510054925 | 46 | 108 | 3.0 | 4.0 | 0.00 | 0.00 | 0.00 | 95 | 1042.2 |
| 20260510054420 | 47 | 82 | 4.0 | 6.0 | 0.00 | 0.00 | 0.00 | 95 | 1042.6 |
| 20260510053915 | 49 | 226 | 1.0 | 4.0 | 0.00 | 0.00 | 0.00 | 95 | 1042.4 |
| 20260510053411 | 50 | 278 | 0.0 | 2.0 | 0.00 | 0.00 | 0.00 | 95 | 1042.6 |
| 20260510052907 | 48 | 262 | 2.0 | 4.0 | 0.00 | 0.00 | 0.00 | 95 | 1042.4 |
| 20260510052403 | 47 | 271 | 0.0 | 1.0 | 0.00 | 0.00 | 0.00 | 95 | 1042.4 |
| 20260510051900 | 46 | 309 | 4.0 | 6.0 | 0.00 | 0.00 | 0.00 | 95 | 1042.1 |
| 20260510051356 | 46 | 309 | 1.0 | 2.0 | 0.00 | 0.00 | 0.00 | 95 | 1041.5 |
| 20260510050853 | 45 | 312 | 2.0 | 3.0 | 0.00 | 0.00 | 0.00 | 95 | 1041.7 |
| 20260510050350 | 45 | 298 | 2.0 | 3.0 | 0.00 | 0.00 | 0.00 | 95 | 1041.9 |
| 20260510045847 | 45 | 322 | 4.0 | 4.0 | 0.00 | 0.00 | 0.00 | 95 | 1041.4 |
| 20260510045343 | 46 | 294 | 0.0 | 0.0 | 0.00 | 0.00 | 0.00 | 95 | 1041.7 |
| 20260510044840 | 45 | 300 | 0.0 | 0.0 | 0.00 | 0.00 | 0.00 | 95 | 1041.3 |
| 20260510044337 | 45 | 301 | 0.0 | 2.0 | 0.00 | 0.00 | 0.00 | 95 | 1041.4 |
| 20260510043834 | 46 | 280 | 0.0 | 0.0 | 0.00 | 0.00 | 0.00 | 95 | 1041.7 |
| 20260510043330 | 47 | 277 | 0.0 | 3.0 | 0.00 | 0.00 | 0.00 | 95 | 1041.7 |
| 20260510042828 | 47 | 239 | 1.0 | 1.0 | 0.00 | 0.00 | 0.00 | 95 | 1041.4 |
| 20260510042324 | 47 | 270 | 0.0 | 2.0 | 0.00 | 0.00 | 0.00 | 95 | 1041.5 |
| 20260510041820 | 47 | 324 | 2.0 | 8.0 | 0.00 | 0.00 | 0.00 | 95 | 1041.3 |
| 20260510041317 | 47 | 284 | 0.0 | 2.0 | 0.00 | 0.00 | 0.00 | 95 | 1041.2 |
| 20260510040815 | 47 | 298 | 1.0 | 2.0 | 0.00 | 0.00 | 0.00 | 95 | 1040.9 |
| 20260510040311 | 47 | 323 | 3.0 | 4.0 | 0.00 | 0.00 | 0.00 | 95 | 1041.1 |
| 20260510035806 | 47 | 323 | 4.0 | 6.0 | 0.00 | 0.53 | 0.53 | 95 | 1040.9 |
| 20260510035306 | 47 | 303 | 2.0 | 3.0 | 0.00 | 0.53 | 0.53 | 95 | 1040.4 |
| 20260510034758 | 47 | 317 | 3.0 | 4.0 | 0.00 | 0.53 | 0.53 | 95 | 1040.7 |
| 20260510034256 | 47 | 305 | 0.0 | 0.0 | 0.00 | 0.53 | 0.53 | 95 | 1040.6 |
| 20260510033752 | 47 | 302 | 2.0 | 3.0 | 0.00 | 0.53 | 0.53 | 95 | 1040.7 |
| 20260510033250 | 48 | 292 | 1.0 | 1.0 | 0.00 | 0.53 | 0.53 | 95 | 1040.9 |
| 20260510032746 | 48 | 294 | 0.0 | 1.0 | 0.00 | 0.53 | 0.53 | 95 | 1040.9 |
| 20260510032242 | 48 | 288 | 0.0 | 2.0 | 0.00 | 0.53 | 0.53 | 95 | 1040.7 |
| 20260510031738 | 48 | 299 | 1.0 | 2.0 | 0.00 | 0.53 | 0.53 | 95 | 1040.7 |
| 20260510031234 | 48 | 298 | 1.0 | 2.0 | 0.00 | 0.53 | 0.53 | 95 | 1040.9 |
| 20260510030733 | 48 | 299 | 2.0 | 2.0 | 0.00 | 0.53 | 0.53 | 95 | 1040.5 |
| 20260510030231 | 48 | 311 | 2.0 | 3.0 | 0.00 | 0.53 | 0.53 | 95 | 1040.7 |
| 20260510025728 | 48 | 297 | 1.0 | 1.0 | 0.00 | 0.53 | 0.53 | 95 | 1040.8 |
| 20260510025226 | 48 | 297 | 1.0 | 2.0 | 0.00 | 0.53 | 0.53 | 95 | 1040.8 |
| 20260510024722 | 49 | 292 | 0.0 | 0.0 | 0.00 | 0.53 | 0.53 | 95 | 1040.6 |
| 20260510024219 | 49 | 295 | 1.0 | 2.0 | 0.00 | 0.53 | 0.53 | 95 | 1040.7 |
| 20260510023714 | 48 | 293 | 1.0 | 2.0 | 0.00 | 0.53 | 0.53 | 95 | 1040.9 |
| 20260510023212 | 48 | 290 | 1.0 | 1.0 | 0.00 | 0.53 | 0.53 | 95 | 1040.8 |
| 20260510022707 | 48 | 286 | 1.0 | 2.0 | 0.00 | 0.53 | 0.53 | 95 | 1040.7 |
| 20260510022156 | 48 | 317 | 2.0 | 3.0 | 0.00 | 0.53 | 0.53 | 95 | 1040.7 |
| 20260510021652 | 49 | 285 | 0.0 | 1.0 | 0.00 | 0.53 | 0.53 | 95 | 1040.6 |
| 20260510021149 | 49 | 248 | 1.0 | 2.0 | 0.00 | 0.53 | 0.53 | 95 | 1040.7 |
| 20260510020644 | 50 | 285 | 0.0 | 0.0 | 0.00 | 0.53 | 0.53 | 94 | 1040.7 |
| 20260510020140 | 50 | 282 | 0.0 | 0.0 | 0.00 | 0.53 | 0.53 | 95 | 1040.9 |
| 20260510015636 | 50 | 283 | 0.0 | 1.0 | 0.00 | 0.53 | 0.53 | 95 | 1040.9 |
| 20260510015133 | 49 | 294 | 1.0 | 2.0 | 0.00 | 0.53 | 0.53 | 94 | 1040.7 |
| 20260510014627 | 49 | 286 | 1.0 | 3.0 | 0.00 | 0.53 | 0.53 | 94 | 1040.8 |
| 20260510014125 | 49 | 300 | 2.0 | 3.0 | 0.00 | 0.53 | 0.53 | 94 | 1040.7 |
| 20260510013619 | 50 | 315 | 3.0 | 3.0 | 0.00 | 0.53 | 0.53 | 94 | 1040.6 |
| 20260510013115 | 50 | 290 | 1.0 | 1.0 | 0.00 | 0.53 | 0.53 | 94 | 1040.4 |
| 20260510012614 | 51 | 282 | 0.0 | 2.0 | 0.00 | 0.53 | 0.53 | 93 | 1040.6 |
| 20260510012111 | 51 | 301 | 2.0 | 2.0 | 0.00 | 0.53 | 0.53 | 93 | 1040.5 |
| 20260510011610 | 51 | 280 | 1.0 | 2.0 | 0.00 | 0.53 | 0.53 | 93 | 1040.5 |
| 20260510011106 | 51 | 281 | 1.0 | 1.0 | 0.00 | 0.53 | 0.53 | 93 | 1040.5 |
| 20260510010603 | 51 | 272 | 1.0 | 1.0 | 0.00 | 0.53 | 0.53 | 93 | 1040.5 |
| 20260510010100 | 51 | 276 | 1.0 | 1.0 | 0.00 | 0.53 | 0.53 | 92 | 1040.3 |
| 20260510005555 | 51 | 287 | 1.0 | 1.0 | 0.00 | 0.53 | 0.53 | 92 | 1040.3 |
| 20260510005054 | 52 | 275 | 0.0 | 1.0 | 0.00 | 0.53 | 0.53 | 91 | 1040.2 |
| 20260510004552 | 52 | 262 | 0.0 | 1.0 | 0.00 | 0.53 | 0.53 | 91 | 1040.5 |
| 20260510004049 | 53 | 250 | 1.0 | 2.0 | 0.00 | 0.53 | 0.53 | 91 | 1040.3 |
| 20260510003545 | 53 | 248 | 1.0 | 2.0 | 0.00 | 0.53 | 0.53 | 90 | 1040.2 |
| 20260510003041 | 53 | 221 | 2.0 | 2.0 | 0.00 | 0.53 | 0.53 | 90 | 1040.1 |
| 20260510002536 | 53 | 235 | 2.0 | 2.0 | 0.00 | 0.53 | 0.53 | 90 | 1040.3 |
| 20260510002034 | 53 | 239 | 1.0 | 2.0 | 0.00 | 0.53 | 0.53 | 90 | 1040.3 |
| 20260510001531 | 53 | 258 | 2.0 | 3.0 | 0.00 | 0.53 | 0.53 | 90 | 1040.2 |
| 20260510001030 | 53 | 257 | 1.0 | 2.0 | 0.00 | 0.53 | 0.53 | 90 | 1040.1 |
| 20260510000530 | 53 | 264 | 2.0 | 4.0 | 0.00 | 0.53 | 0.53 | 91 | 1040.3 |
| 20260510000027 | 53 | 274 | 0.0 | 1.0 | 0.00 | 0.53 | 0.53 | 90 | 1040.1 |
| 20260509235523 | 53 | 269 | 0.0 | 1.0 | 0.00 | 0.53 | 0.53 | 90 | 1040.1 |
| 20260509235021 | 54 | 265 | 0.0 | 2.0 | 0.00 | 0.53 | 0.53 | 89 | 1039.8 |
| 20260509234517 | 54 | 244 | 2.0 | 3.0 | 0.00 | 0.53 | 0.53 | 89 | 1039.7 |
| 20260509234016 | 54 | 210 | 3.0 | 4.0 | 0.00 | 0.53 | 0.53 | 89 | 1039.8 |
| 20260509233513 | 54 | 232 | 1.0 | 4.0 | 0.00 | 0.53 | 0.53 | 89 | 1039.6 |
| 20260509233010 | 54 | 253 | 1.0 | 6.0 | 0.00 | 0.53 | 0.53 | 88 | 1039.6 |
| 20260509232507 | 55 | 262 | 1.0 | 3.0 | 0.00 | 0.53 | 0.53 | 88 | 1039.7 |
| 20260509232003 | 55 | 236 | 2.0 | 3.0 | 0.00 | 0.53 | 0.53 | 88 | 1039.6 |
| 20260509231459 | 55 | 260 | 2.0 | 6.0 | 0.00 | 0.53 | 0.53 | 87 | 1039.7 |
| 20260509230957 | 55 | 267 | 6.0 | 9.0 | 0.00 | 0.53 | 0.53 | 86 | 1039.6 |
| 20260509230454 | 55 | 268 | 3.0 | 7.0 | 0.00 | 0.53 | 0.53 | 87 | 1039.4 |
| 20260509225950 | 55 | 247 | 4.0 | 7.0 | 0.00 | 0.53 | 0.53 | 87 | 1039.5 |
| 20260509225446 | 55 | 233 | 3.0 | 4.0 | 0.00 | 0.53 | 0.53 | 88 | 1039.3 |
| 20260509224942 | 56 | 221 | 5.0 | 7.0 | 0.00 | 0.53 | 0.53 | 88 | 1039.2 |
| 20260509224438 | 55 | 254 | 4.0 | 7.0 | 0.00 | 0.53 | 0.53 | 89 | 1039.3 |
| 20260509223935 | 55 | 257 | 4.0 | 7.0 | 0.00 | 0.53 | 0.53 | 90 | 1039.4 |
| 20260509223431 | 55 | 237 | 3.0 | 4.0 | 0.00 | 0.53 | 0.53 | 90 | 1039.1 |
| 20260509222929 | 55 | 251 | 5.0 | 7.0 | 0.00 | 0.53 | 0.53 | 90 | 1039.4 |
| 20260509222424 | 54 | 261 | 1.0 | 3.0 | 0.00 | 0.53 | 0.53 | 91 | 1039.3 |
| 20260509221920 | 54 | 254 | 2.0 | 6.0 | 0.00 | 0.53 | 0.53 | 91 | 1039.5 |
| 20260509221417 | 54 | 271 | 1.0 | 4.0 | 0.00 | 0.53 | 0.53 | 91 | 1039.6 |
| 20260509220913 | 54 | 255 | 2.0 | 3.0 | 0.00 | 0.53 | 0.53 | 92 | 1039.7 |
| 20260509220409 | 53 | 253 | 3.0 | 6.0 | 0.00 | 0.53 | 0.53 | 93 | 1039.6 |
| 20260509215905 | 53 | 251 | 2.0 | 4.0 | 0.00 | 0.53 | 0.53 | 93 | 1039.8 |
| 20260509215401 | 53 | 251 | 2.0 | 6.0 | 0.00 | 0.53 | 0.53 | 94 | 1039.7 |
| 20260509214858 | 53 | 253 | 2.0 | 4.0 | 0.00 | 0.53 | 0.53 | 94 | 1039.9 |
| 20260509214355 | 53 | 214 | 3.0 | 7.0 | 0.00 | 0.53 | 0.53 | 94 | 1039.9 |
| 20260509213852 | 53 | 223 | 5.0 | 7.0 | 0.00 | 0.53 | 0.53 | 94 | 1040.0 |
| 20260509213347 | 53 | 243 | 2.0 | 7.0 | 0.00 | 0.53 | 0.53 | 94 | 1040.0 |
| 20260509212846 | 53 | 220 | 4.0 | 6.0 | 0.00 | 0.53 | 0.53 | 94 | 1040.2 |
| 20260509212343 | 52 | 229 | 2.0 | 8.0 | 0.00 | 0.53 | 0.53 | 94 | 1040.0 |
| 20260509211839 | 52 | 233 | 2.0 | 4.0 | 0.00 | 0.53 | 0.53 | 95 | 1040.0 |
| 20260509211334 | 52 | 230 | 2.0 | 3.0 | 0.00 | 0.53 | 0.53 | 95 | 1040.2 |
| 20260509210831 | 52 | 240 | 2.0 | 7.0 | 0.00 | 0.53 | 0.53 | 94 | 1040.1 |
| 20260509210329 | 52 | 208 | 1.0 | 3.0 | 0.07 | 0.53 | 0.53 | 94 | 1040.1 |
| 20260509205828 | 52 | 228 | 3.0 | 7.0 | 0.07 | 0.53 | 0.53 | 94 | 1040.2 |
| 20260509205323 | 53 | 256 | 5.0 | 7.0 | 0.05 | 0.52 | 0.52 | 94 | 1040.2 |
| 20260509204820 | 53 | 231 | 4.0 | 6.0 | 0.00 | 0.51 | 0.51 | 94 | 1040.2 |
| 20260509204316 | 53 | 239 | 4.0 | 8.0 | 0.00 | 0.51 | 0.51 | 94 | 1040.1 |
| 20260509203813 | 52 | 243 | 2.0 | 7.0 | 0.00 | 0.51 | 0.51 | 94 | 1040.4 |
| 20260509203310 | 52 | 201 | 5.0 | 7.0 | 0.00 | 0.51 | 0.51 | 94 | 1040.0 |
| 20260509202806 | 52 | 243 | 4.0 | 6.0 | 0.00 | 0.51 | 0.51 | 94 | 1040.1 |
| 20260509202306 | 52 | 221 | 3.0 | 7.0 | 0.00 | 0.51 | 0.51 | 94 | 1040.1 |
| 20260509201801 | 52 | 221 | 5.0 | 8.0 | 0.07 | 0.51 | 0.51 | 94 | 1040.0 |
| 20260509201259 | 52 | 244 | 3.0 | 6.0 | 0.07 | 0.51 | 0.51 | 94 | 1040.2 |
| 20260509200755 | 52 | 207 | 4.0 | 7.0 | 0.00 | 0.50 | 0.50 | 94 | 1040.4 |
| 20260509200250 | 52 | 245 | 1.0 | 4.0 | 0.07 | 0.50 | 0.50 | 94 | 1040.5 |
| 20260509195747 | 51 | 259 | 4.0 | 9.0 | 0.00 | 0.49 | 0.49 | 94 | 1040.6 |
| 20260509195242 | 52 | 200 | 5.0 | 7.0 | 0.05 | 0.49 | 0.49 | 94 | 1040.6 |
| 20260509194736 | 51 | 213 | 6.0 | 8.0 | 0.05 | 0.49 | 0.49 | 95 | 1040.8 |
| 20260509194233 | 51 | 208 | 3.0 | 8.0 | 0.07 | 0.48 | 0.48 | 95 | 1040.7 |
| 20260509193730 | 52 | 236 | 4.0 | 7.0 | 0.07 | 0.48 | 0.48 | 94 | 1040.7 |
| 20260509193229 | 51 | 253 | 6.0 | 8.0 | 0.00 | 0.47 | 0.47 | 94 | 1041.0 |
| 20260509192726 | 51 | 245 | 5.0 | 8.0 | 0.05 | 0.47 | 0.47 | 94 | 1041.1 |
| 20260509192221 | 51 | 247 | 4.0 | 7.0 | 0.00 | 0.46 | 0.46 | 93 | 1040.8 |
| 20260509191716 | 52 | 249 | 4.0 | 7.0 | 0.00 | 0.46 | 0.46 | 93 | 1040.9 |
| 20260509191213 | 51 | 202 | 6.0 | 7.0 | 0.00 | 0.46 | 0.46 | 93 | 1041.0 |
| 20260509190709 | 51 | 239 | 5.0 | 7.0 | 0.07 | 0.46 | 0.46 | 93 | 1041.0 |
| 20260509190207 | 51 | 228 | 6.0 | 7.0 | 0.12 | 0.46 | 0.46 | 92 | 1040.9 |
| 20260509185704 | 51 | 238 | 5.0 | 10.0 | 0.05 | 0.45 | 0.45 | 92 | 1041.0 |
| 20260509185200 | 51 | 247 | 3.0 | 9.0 | 0.07 | 0.44 | 0.44 | 93 | 1041.2 |
| 20260509184658 | 51 | 212 | 7.0 | 15.0 | 0.12 | 0.44 | 0.44 | 92 | 1041.1 |
| 20260509184155 | 51 | 228 | 3.0 | 9.0 | 0.12 | 0.43 | 0.43 | 92 | 1041.3 |
| 20260509183651 | 52 | 203 | 3.0 | 11.0 | 0.07 | 0.42 | 0.42 | 92 | 1040.9 |
| 20260509183146 | 52 | 216 | 8.0 | 11.0 | 0.05 | 0.41 | 0.41 | 93 | 1040.9 |
| 20260509182642 | 52 | 135 | 6.0 | 9.0 | 0.12 | 0.41 | 0.41 | 94 | 1041.2 |
| 20260509182140 | 52 | 264 | 6.0 | 10.0 | 0.12 | 0.40 | 0.40 | 93 | 1041.0 |
| 20260509181638 | 52 | 218 | 6.0 | 9.0 | 0.05 | 0.39 | 0.39 | 93 | 1040.9 |
| 20260509181135 | 52 | 211 | 4.0 | 8.0 | 0.07 | 0.38 | 0.38 | 93 | 1041.0 |
| 20260509180631 | 52 | 218 | 6.0 | 10.0 | 0.07 | 0.38 | 0.38 | 93 | 1041.0 |
| 20260509180128 | 52 | 202 | 5.0 | 10.0 | 0.00 | 0.37 | 0.37 | 93 | 1041.2 |
| 20260509175623 | 52 | 195 | 6.0 | 10.0 | 0.07 | 0.37 | 0.37 | 93 | 1041.1 |
| 20260509175121 | 52 | 204 | 8.0 | 13.0 | 0.12 | 0.37 | 0.37 | 93 | 1040.9 |
| 20260509174617 | 52 | 218 | 6.0 | 9.0 | 0.05 | 0.36 | 0.36 | 94 | 1041.2 |
| 20260509174112 | 52 | 235 | 3.0 | 11.0 | 0.00 | 0.35 | 0.35 | 94 | 1041.0 |
| 20260509173608 | 52 | 236 | 4.0 | 10.0 | 0.00 | 0.35 | 0.35 | 94 | 1041.1 |
| 20260509173104 | 52 | 254 | 4.0 | 7.0 | 0.00 | 0.35 | 0.35 | 94 | 1040.9 |
| 20260509172601 | 52 | 197 | 4.0 | 7.0 | 0.07 | 0.35 | 0.35 | 94 | 1040.9 |
| 20260509172056 | 52 | 212 | 4.0 | 6.0 | 0.07 | 0.35 | 0.35 | 95 | 1041.0 |
| 20260509171552 | 52 | 235 | 4.0 | 6.0 | 0.00 | 0.34 | 0.34 | 94 | 1041.1 |
| 20260509171049 | 52 | 214 | 4.0 | 6.0 | 0.05 | 0.34 | 0.34 | 95 | 1041.2 |
| 20260509170545 | 51 | 244 | 2.0 | 6.0 | 0.12 | 0.34 | 0.34 | 95 | 1041.0 |
| 20260509170041 | 52 | 262 | 1.0 | 4.0 | 0.12 | 0.33 | 0.33 | 95 | 1041.1 |
| 20260509165540 | 51 | 238 | 2.0 | 3.0 | 0.12 | 0.32 | 0.32 | 95 | 1040.8 |
| 20260509165035 | 51 | 254 | 5.0 | 6.0 | 0.19 | 0.31 | 0.31 | 95 | 1041.0 |
| 20260509164532 | 51 | 223 | 4.0 | 4.0 | 0.12 | 0.29 | 0.29 | 94 | 1041.2 |
| 20260509164027 | 51 | 248 | 2.0 | 4.0 | 0.17 | 0.28 | 0.28 | 93 | 1041.2 |
| 20260509163526 | 52 | 245 | 2.0 | 4.0 | 0.12 | 0.26 | 0.26 | 93 | 1041.1 |
| 20260509163020 | 52 | 250 | 2.0 | 3.0 | 0.07 | 0.25 | 0.25 | 93 | 1041.2 |
| 20260509162518 | 52 | 247 | 2.0 | 3.0 | 0.07 | 0.24 | 0.24 | 92 | 1041.2 |
| 20260509162014 | 52 | 255 | 2.0 | 2.0 | 0.00 | 0.23 | 0.23 | 92 | 1041.0 |
| 20260509161510 | 52 | 259 | 2.0 | 2.0 | 0.00 | 0.23 | 0.23 | 92 | 1041.1 |
| 20260509161005 | 52 | 251 | 1.0 | 3.0 | 0.00 | 0.23 | 0.23 | 92 | 1041.0 |
| 20260509160501 | 52 | 262 | 2.0 | 2.0 | 0.05 | 0.23 | 0.23 | 91 | 1041.2 |
| 20260509155956 | 52 | 254 | 1.0 | 3.0 | 0.05 | 0.23 | 0.23 | 92 | 1041.2 |
| 20260509155453 | 52 | 254 | 1.0 | 2.0 | 0.00 | 0.22 | 0.22 | 91 | 1041.2 |
| 20260509154949 | 52 | 258 | 0.0 | 2.0 | 0.00 | 0.22 | 0.22 | 92 | 1041.4 |
| 20260509154445 | 52 | 255 | 1.0 | 1.0 | 0.00 | 0.22 | 0.22 | 92 | 1041.3 |
| 20260509153943 | 52 | 268 | 0.0 | 2.0 | 0.00 | 0.22 | 0.22 | 92 | 1041.2 |
| 20260509153440 | 52 | 277 | 1.0 | 2.0 | 0.07 | 0.22 | 0.22 | 92 | 1041.3 |
| 20260509152937 | 51 | 266 | 0.0 | 1.0 | 0.07 | 0.22 | 0.22 | 92 | 1041.7 |
| 20260509152433 | 51 | 266 | 0.0 | 1.0 | 0.00 | 0.21 | 0.21 | 92 | 1041.5 |
| 20260509151930 | 51 | 264 | 0.0 | 0.0 | 0.00 | 0.21 | 0.21 | 92 | 1041.8 |
| 20260509151426 | 51 | 261 | 2.0 | 2.0 | 0.05 | 0.21 | 0.21 | 92 | 1041.8 |
| 20260509150924 | 51 | 261 | 0.0 | 0.0 | 0.05 | 0.21 | 0.21 | 93 | 1041.8 |
| 20260509150421 | 51 | 262 | 1.0 | 2.0 | 0.00 | 0.20 | 0.20 | 93 | 1041.4 |
| 20260509145919 | 52 | 253 | 1.0 | 2.0 | 0.00 | 0.20 | 0.20 | 93 | 1041.9 |
| 20260509145414 | 51 | 256 | 0.0 | 1.0 | 0.00 | 0.20 | 0.20 | 93 | 1042.0 |
| 20260509144910 | 51 | 262 | 0.0 | 2.0 | 0.07 | 0.20 | 0.20 | 93 | 1042.0 |
| 20260509144407 | 51 | 262 | 1.0 | 2.0 | 0.00 | 0.19 | 0.19 | 93 | 1042.1 |
| 20260509143904 | 51 | 266 | 0.0 | 1.0 | 0.00 | 0.19 | 0.19 | 93 | 1042.1 |
| 20260509143401 | 51 | 267 | 1.0 | 1.0 | 0.05 | 0.19 | 0.19 | 94 | 1041.9 |
| 20260509142857 | 50 | 274 | 1.0 | 2.0 | 0.05 | 0.19 | 0.19 | 94 | 1042.1 |
| 20260509142354 | 50 | 283 | 0.0 | 0.0 | 0.00 | 0.18 | 0.18 | 94 | 1042.2 |
| 20260509141849 | 51 | 279 | 0.0 | 1.0 | 0.07 | 0.18 | 0.18 | 94 | 1042.2 |
| 20260509141347 | 50 | 290 | 0.0 | 0.0 | 0.07 | 0.18 | 0.18 | 94 | 1041.9 |
| 20260509140843 | 50 | 288 | 0.0 | 1.0 | 0.05 | 0.17 | 0.17 | 94 | 1041.9 |
| 20260509140340 | 50 | 295 | 1.0 | 1.0 | 0.05 | 0.17 | 0.17 | 94 | 1041.9 |
| 20260509135838 | 50 | 295 | 0.0 | 0.0 | 0.00 | 0.16 | 0.16 | 94 | 1041.9 |
| 20260509135335 | 50 | 295 | 0.0 | 1.0 | 0.07 | 0.16 | 0.16 | 94 | 1041.8 |
| 20260509134832 | 50 | 295 | 1.0 | 1.0 | 0.07 | 0.16 | 0.16 | 94 | 1041.7 |
| 20260509134329 | 50 | 282 | 0.0 | 1.0 | 0.05 | 0.15 | 0.15 | 94 | 1041.8 |
| 20260509133826 | 50 | 307 | 1.0 | 3.0 | 0.05 | 0.15 | 0.15 | 94 | 1041.4 |
| 20260509133323 | 50 | 308 | 1.0 | 1.0 | 0.00 | 0.14 | 0.14 | 94 | 1041.7 |
| 20260509132822 | 50 | 314 | 1.0 | 4.0 | 0.07 | 0.14 | 0.14 | 94 | 1041.3 |
| 20260509132320 | 50 | 311 | 3.0 | 4.0 | 0.07 | 0.14 | 0.14 | 94 | 1041.3 |
| 20260509131816 | 50 | 317 | 2.0 | 2.0 | 0.07 | 0.13 | 0.13 | 94 | 1041.5 |
| 20260509131313 | 50 | 307 | 0.0 | 2.0 | 0.07 | 0.13 | 0.13 | 94 | 1041.4 |
| 20260509130810 | 50 | 301 | 0.0 | 0.0 | 0.05 | 0.12 | 0.12 | 94 | 1041.4 |